sensor_id;sensor_type;location;lat;lon;timestamp;temperature;humidity
1383;DHT22;685;47.196;11.880;2023-04-03T00:00:49;6.10;99.90
1383;DHT22;685;47.196;11.880;2023-04-03T00:03:16;6.00;99.90
1383;DHT22;685;47.196;11.880;2023-04-03T00:05:45;5.90;99.90
1383;DHT22;685;47.196;11.880;2023-04-03T00:08:12;5.70;99.90
1383;DHT22;685;47.196;11.880;2023-04-03T00:10:39;5.60;99.90
1383;DHT22;685;47.196;11.880;2023-04-03T00:13:07;5.50;99.90
1383;DHT22;685;47.196;11.880;2023-04-03T00:15:34;5.40;99.90
1383;DHT22;685;47.196;11.880;2023-04-03T00:18:02;5.50;99.90
1383;DHT22;685;47.196;11.880;2023-04-03T00:20:29;5.50;99.90
1383;DHT22;685;47.196;11.880;2023-04-03T00:22:57;5.60;99.90
1383;DHT22;685;47.196;11.880;2023-04-03T00:25:25;5.70;99.90
1383;DHT22;685;47.196;11.880;2023-04-03T00:27:51;5.70;99.90
1383;DHT22;685;47.196;11.880;2023-04-03T00:30:20;5.70;99.90
1383;DHT22;685;47.196;11.880;2023-04-03T00:32:47;5.80;99.90
1383;DHT22;685;47.196;11.880;2023-04-03T00:35:14;5.90;99.90
1383;DHT22;685;47.196;11.880;2023-04-03T00:37:42;5.80;99.90
1383;DHT22;685;47.196;11.880;2023-04-03T00:40:12;5.90;99.90
1383;DHT22;685;47.196;11.880;2023-04-03T00:42:39;5.80;99.90
1383;DHT22;685;47.196;11.880;2023-04-03T00:45:32;5.90;99.90
1383;DHT22;685;47.196;11.880;2023-04-03T00:48:00;6.00;99.90
1383;DHT22;685;47.196;11.880;2023-04-03T00:50:28;5.80;99.90
1383;DHT22;685;47.196;11.880;2023-04-03T00:52:56;5.80;99.90
1383;DHT22;685;47.196;11.880;2023-04-03T00:55:25;5.80;99.90
1383;DHT22;685;47.196;11.880;2023-04-03T00:57:53;5.90;99.90
1383;DHT22;685;47.196;11.880;2023-04-03T01:00:22;5.80;99.90
1383;DHT22;685;47.196;11.880;2023-04-03T01:02:50;5.80;99.90
1383;DHT22;685;47.196;11.880;2023-04-03T01:05:19;5.70;99.90
1383;DHT22;685;47.196;11.880;2023-04-03T01:07:48;5.70;99.90
1383;DHT22;685;47.196;11.880;2023-04-03T01:10:17;5.60;99.90
1383;DHT22;685;47.196;11.880;2023-04-03T01:12:48;5.60;99.90
1383;DHT22;685;47.196;11.880;2023-04-03T01:15:18;5.60;99.90
1383;DHT22;685;47.196;11.880;2023-04-03T01:17:47;5.70;99.90
1383;DHT22;685;47.196;11.880;2023-04-03T01:20:31;5.60;99.90
1383;DHT22;685;47.196;11.880;2023-04-03T01:23:11;5.70;99.90
1383;DHT22;685;47.196;11.880;2023-04-03T01:25:41;5.60;99.90
1383;DHT22;685;47.196;11.880;2023-04-03T01:28:11;5.60;99.90
1383;DHT22;685;47.196;11.880;2023-04-03T01:30:43;5.70;99.90
1383;DHT22;685;47.196;11.880;2023-04-03T01:33:13;5.70;99.90
1383;DHT22;685;47.196;11.880;2023-04-03T01:35:40;5.70;99.90
1383;DHT22;685;47.196;11.880;2023-04-03T01:38:07;5.60;99.90
1383;DHT22;685;47.196;11.880;2023-04-03T01:40:34;5.70;99.90
1383;DHT22;685;47.196;11.880;2023-04-03T01:43:01;5.70;99.90
1383;DHT22;685;47.196;11.880;2023-04-03T01:45:28;5.70;99.90
1383;DHT22;685;47.196;11.880;2023-04-03T01:47:55;5.60;99.90
1383;DHT22;685;47.196;11.880;2023-04-03T01:50:23;5.50;99.90
1383;DHT22;685;47.196;11.880;2023-04-03T01:52:50;5.40;99.90
1383;DHT22;685;47.196;11.880;2023-04-03T01:55:17;5.40;99.90
1383;DHT22;685;47.196;11.880;2023-04-03T01:57:44;5.40;99.90
1383;DHT22;685;47.196;11.880;2023-04-03T02:00:12;5.40;99.90
1383;DHT22;685;47.196;11.880;2023-04-03T02:02:39;5.40;99.90
1383;DHT22;685;47.196;11.880;2023-04-03T02:05:07;5.40;99.90
1383;DHT22;685;47.196;11.880;2023-04-03T02:07:35;5.50;99.90
1383;DHT22;685;47.196;11.880;2023-04-03T02:10:02;5.40;99.90
1383;DHT22;685;47.196;11.880;2023-04-03T02:12:29;5.30;99.90
1383;DHT22;685;47.196;11.880;2023-04-03T02:14:56;5.30;99.90
1383;DHT22;685;47.196;11.880;2023-04-03T02:17:23;5.20;99.90
1383;DHT22;685;47.196;11.880;2023-04-03T02:19:50;5.20;99.90
1383;DHT22;685;47.196;11.880;2023-04-03T02:22:17;5.20;99.90
1383;DHT22;685;47.196;11.880;2023-04-03T02:24:47;5.20;99.90
1383;DHT22;685;47.196;11.880;2023-04-03T02:27:14;5.10;99.90
1383;DHT22;685;47.196;11.880;2023-04-03T02:29:41;5.10;99.90
1383;DHT22;685;47.196;11.880;2023-04-03T02:32:08;5.20;99.90
1383;DHT22;685;47.196;11.880;2023-04-03T02:34:35;5.10;99.90
1383;DHT22;685;47.196;11.880;2023-04-03T02:37:02;5.10;99.90
1383;DHT22;685;47.196;11.880;2023-04-03T02:39:29;4.90;99.90
1383;DHT22;685;47.196;11.880;2023-04-03T02:41:57;5.00;99.90
1383;DHT22;685;47.196;11.880;2023-04-03T02:44:24;4.80;99.90
1383;DHT22;685;47.196;11.880;2023-04-03T02:46:51;4.80;99.90
1383;DHT22;685;47.196;11.880;2023-04-03T02:49:18;4.90;99.90
1383;DHT22;685;47.196;11.880;2023-04-03T02:51:45;4.80;99.90
1383;DHT22;685;47.196;11.880;2023-04-03T02:54:13;4.60;99.90
1383;DHT22;685;47.196;11.880;2023-04-03T02:56:40;4.50;99.90
1383;DHT22;685;47.196;11.880;2023-04-03T02:59:08;4.50;99.90
1383;DHT22;685;47.196;11.880;2023-04-03T03:01:35;4.50;99.90
1383;DHT22;685;47.196;11.880;2023-04-03T03:04:02;4.40;99.90
1383;DHT22;685;47.196;11.880;2023-04-03T03:06:29;4.40;99.90
1383;DHT22;685;47.196;11.880;2023-04-03T03:08:56;4.40;99.90
1383;DHT22;685;47.196;11.880;2023-04-03T03:11:23;4.50;99.90
1383;DHT22;685;47.196;11.880;2023-04-03T03:13:50;4.60;99.90
1383;DHT22;685;47.196;11.880;2023-04-03T03:16:19;4.60;99.90
1383;DHT22;685;47.196;11.880;2023-04-03T03:18:45;4.50;99.90
1383;DHT22;685;47.196;11.880;2023-04-03T03:21:12;4.50;99.90
1383;DHT22;685;47.196;11.880;2023-04-03T03:23:39;4.60;99.90
1383;DHT22;685;47.196;11.880;2023-04-03T03:26:08;4.30;99.90
1383;DHT22;685;47.196;11.880;2023-04-03T03:28:36;4.30;99.90
1383;DHT22;685;47.196;11.880;2023-04-03T03:31:04;4.30;99.90
1383;DHT22;685;47.196;11.880;2023-04-03T03:33:33;4.20;99.90
1383;DHT22;685;47.196;11.880;2023-04-03T03:36:00;4.30;99.90
1383;DHT22;685;47.196;11.880;2023-04-03T03:38:27;4.10;99.90
1383;DHT22;685;47.196;11.880;2023-04-03T03:40:53;4.30;99.90
1383;DHT22;685;47.196;11.880;2023-04-03T03:43:20;4.40;99.90
1383;DHT22;685;47.196;11.880;2023-04-03T03:45:50;4.40;99.90
1383;DHT22;685;47.196;11.880;2023-04-03T03:48:18;4.30;99.90
1383;DHT22;685;47.196;11.880;2023-04-03T03:50:46;4.40;99.90
1383;DHT22;685;47.196;11.880;2023-04-03T03:53:14;4.50;99.90
1383;DHT22;685;47.196;11.880;2023-04-03T03:55:41;4.50;99.90
1383;DHT22;685;47.196;11.880;2023-04-03T03:58:08;4.60;99.90
1383;DHT22;685;47.196;11.880;2023-04-03T04:00:36;4.70;99.90
1383;DHT22;685;47.196;11.880;2023-04-03T04:03:03;4.70;99.90
1383;DHT22;685;47.196;11.880;2023-04-03T04:05:30;4.50;99.90
1383;DHT22;685;47.196;11.880;2023-04-03T04:07:59;4.60;99.90
1383;DHT22;685;47.196;11.880;2023-04-03T04:10:25;4.50;99.90
1383;DHT22;685;47.196;11.880;2023-04-03T04:12:52;4.60;99.90
1383;DHT22;685;47.196;11.880;2023-04-03T04:15:19;4.60;99.90
1383;DHT22;685;47.196;11.880;2023-04-03T04:17:47;4.70;99.90
1383;DHT22;685;47.196;11.880;2023-04-03T04:20:14;4.70;99.90
1383;DHT22;685;47.196;11.880;2023-04-03T04:22:41;4.60;99.90
1383;DHT22;685;47.196;11.880;2023-04-03T04:25:10;4.60;99.90
1383;DHT22;685;47.196;11.880;2023-04-03T04:27:37;4.50;99.90
1383;DHT22;685;47.196;11.880;2023-04-03T04:30:05;4.50;99.90
1383;DHT22;685;47.196;11.880;2023-04-03T04:32:32;4.50;99.90
1383;DHT22;685;47.196;11.880;2023-04-03T04:34:59;4.70;99.90
1383;DHT22;685;47.196;11.880;2023-04-03T04:37:26;4.60;99.90
1383;DHT22;685;47.196;11.880;2023-04-03T04:39:53;4.60;99.90
1383;DHT22;685;47.196;11.880;2023-04-03T04:42:21;4.60;99.90
1383;DHT22;685;47.196;11.880;2023-04-03T04:44:48;4.60;99.90
1383;DHT22;685;47.196;11.880;2023-04-03T04:47:15;4.60;99.90
1383;DHT22;685;47.196;11.880;2023-04-03T04:49:42;4.50;99.90
1383;DHT22;685;47.196;11.880;2023-04-03T04:52:09;4.50;99.90
1383;DHT22;685;47.196;11.880;2023-04-03T04:54:36;4.20;99.90
1383;DHT22;685;47.196;11.880;2023-04-03T04:57:03;4.20;99.90
1383;DHT22;685;47.196;11.880;2023-04-03T04:59:33;4.30;99.90
1383;DHT22;685;47.196;11.880;2023-04-03T05:02:00;4.30;99.90
1383;DHT22;685;47.196;11.880;2023-04-03T05:04:27;4.30;99.90
1383;DHT22;685;47.196;11.880;2023-04-03T05:06:54;4.40;99.90
1383;DHT22;685;47.196;11.880;2023-04-03T05:09:21;4.50;99.90
1383;DHT22;685;47.196;11.880;2023-04-03T05:11:48;4.50;99.90
1383;DHT22;685;47.196;11.880;2023-04-03T05:14:15;4.50;99.90
1383;DHT22;685;47.196;11.880;2023-04-03T05:16:43;4.40;99.90
1383;DHT22;685;47.196;11.880;2023-04-03T05:19:10;4.40;99.90
1383;DHT22;685;47.196;11.880;2023-04-03T05:21:37;4.30;99.90
1383;DHT22;685;47.196;11.880;2023-04-03T05:24:04;4.20;99.90
1383;DHT22;685;47.196;11.880;2023-04-03T05:26:34;4.30;99.90
1383;DHT22;685;47.196;11.880;2023-04-03T05:29:01;4.40;99.90
1383;DHT22;685;47.196;11.880;2023-04-03T05:31:28;4.50;99.90
1383;DHT22;685;47.196;11.880;2023-04-03T05:33:57;4.50;99.90
1383;DHT22;685;47.196;11.880;2023-04-03T05:36:24;4.50;99.90
1383;DHT22;685;47.196;11.880;2023-04-03T05:38:52;4.50;99.90
1383;DHT22;685;47.196;11.880;2023-04-03T05:41:19;4.50;99.90
1383;DHT22;685;47.196;11.880;2023-04-03T05:43:47;4.60;99.90
1383;DHT22;685;47.196;11.880;2023-04-03T05:46:18;4.60;99.90
1383;DHT22;685;47.196;11.880;2023-04-03T05:48:46;4.40;99.90
1383;DHT22;685;47.196;11.880;2023-04-03T05:51:17;4.40;99.90
1383;DHT22;685;47.196;11.880;2023-04-03T05:53:44;4.60;99.90
1383;DHT22;685;47.196;11.880;2023-04-03T05:56:12;4.70;99.90
1383;DHT22;685;47.196;11.880;2023-04-03T05:58:39;4.70;99.90
1383;DHT22;685;47.196;11.880;2023-04-03T06:01:06;4.70;99.90
1383;DHT22;685;47.196;11.880;2023-04-03T06:03:33;4.70;99.90
1383;DHT22;685;47.196;11.880;2023-04-03T06:06:02;4.50;99.90
1383;DHT22;685;47.196;11.880;2023-04-03T06:08:31;4.50;99.90
1383;DHT22;685;47.196;11.880;2023-04-03T06:10:58;4.60;99.90
1383;DHT22;685;47.196;11.880;2023-04-03T06:13:25;4.60;99.90
1383;DHT22;685;47.196;11.880;2023-04-03T06:15:52;4.50;99.90
1383;DHT22;685;47.196;11.880;2023-04-03T06:18:19;4.60;99.90
1383;DHT22;685;47.196;11.880;2023-04-03T06:20:46;4.60;99.90
1383;DHT22;685;47.196;11.880;2023-04-03T06:23:13;4.60;99.90
1383;DHT22;685;47.196;11.880;2023-04-03T06:25:41;4.70;99.90
1383;DHT22;685;47.196;11.880;2023-04-03T06:28:08;4.70;99.90
1383;DHT22;685;47.196;11.880;2023-04-03T06:30:36;4.80;99.90
1383;DHT22;685;47.196;11.880;2023-04-03T06:33:03;4.70;99.90
1383;DHT22;685;47.196;11.880;2023-04-03T06:35:30;4.70;99.90
1383;DHT22;685;47.196;11.880;2023-04-03T06:37:57;4.80;99.90
1383;DHT22;685;47.196;11.880;2023-04-03T06:40:25;4.70;99.90
1383;DHT22;685;47.196;11.880;2023-04-03T06:42:54;4.70;99.90
1383;DHT22;685;47.196;11.880;2023-04-03T06:45:21;4.80;99.90
1383;DHT22;685;47.196;11.880;2023-04-03T06:47:47;4.80;99.90
1383;DHT22;685;47.196;11.880;2023-04-03T06:50:14;4.90;99.90
1383;DHT22;685;47.196;11.880;2023-04-03T06:52:42;5.00;99.90
1383;DHT22;685;47.196;11.880;2023-04-03T06:55:09;5.00;99.90
1383;DHT22;685;47.196;11.880;2023-04-03T06:57:37;5.00;99.90
1383;DHT22;685;47.196;11.880;2023-04-03T07:00:07;5.10;99.90
1383;DHT22;685;47.196;11.880;2023-04-03T07:02:35;5.20;99.90
1383;DHT22;685;47.196;11.880;2023-04-03T07:05:02;5.20;99.90
1383;DHT22;685;47.196;11.880;2023-04-03T07:07:30;5.20;99.90
1383;DHT22;685;47.196;11.880;2023-04-03T07:09:57;5.10;99.90
1383;DHT22;685;47.196;11.880;2023-04-03T07:12:24;5.20;99.90
1383;DHT22;685;47.196;11.880;2023-04-03T07:14:51;5.20;99.90
1383;DHT22;685;47.196;11.880;2023-04-03T07:17:19;5.30;99.90
1383;DHT22;685;47.196;11.880;2023-04-03T07:19:46;5.20;99.90
1383;DHT22;685;47.196;11.880;2023-04-03T07:22:13;5.40;99.90
1383;DHT22;685;47.196;11.880;2023-04-03T07:24:40;5.50;99.90
1383;DHT22;685;47.196;11.880;2023-04-03T07:27:07;5.40;99.90
1383;DHT22;685;47.196;11.880;2023-04-03T07:29:34;5.50;99.90
1383;DHT22;685;47.196;11.880;2023-04-03T07:32:02;5.40;99.90
1383;DHT22;685;47.196;11.880;2023-04-03T07:34:30;5.40;99.90
1383;DHT22;685;47.196;11.880;2023-04-03T07:36:58;5.40;99.90
1383;DHT22;685;47.196;11.880;2023-04-03T07:39:25;5.40;99.90
1383;DHT22;685;47.196;11.880;2023-04-03T07:41:53;5.10;99.90
1383;DHT22;685;47.196;11.880;2023-04-03T07:44:20;4.90;99.90
1383;DHT22;685;47.196;11.880;2023-04-03T07:46:48;5.10;99.90
1383;DHT22;685;47.196;11.880;2023-04-03T07:49:16;5.30;99.90
1383;DHT22;685;47.196;11.880;2023-04-03T07:51:45;5.20;99.90
1383;DHT22;685;47.196;11.880;2023-04-03T07:54:12;5.40;99.90
1383;DHT22;685;47.196;11.880;2023-04-03T07:56:39;5.40;99.90
1383;DHT22;685;47.196;11.880;2023-04-03T07:59:06;5.40;99.90
1383;DHT22;685;47.196;11.880;2023-04-03T08:01:33;5.50;99.90
1383;DHT22;685;47.196;11.880;2023-04-03T08:04:00;5.30;99.90
1383;DHT22;685;47.196;11.880;2023-04-03T08:06:27;5.40;99.90
1383;DHT22;685;47.196;11.880;2023-04-03T08:08:56;5.40;99.90
1383;DHT22;685;47.196;11.880;2023-04-03T08:11:24;5.60;99.90
1383;DHT22;685;47.196;11.880;2023-04-03T08:13:51;5.50;99.90
1383;DHT22;685;47.196;11.880;2023-04-03T08:16:21;5.70;99.90
1383;DHT22;685;47.196;11.880;2023-04-03T08:18:49;5.50;99.90
1383;DHT22;685;47.196;11.880;2023-04-03T08:21:15;5.70;99.90
1383;DHT22;685;47.196;11.880;2023-04-03T08:23:42;5.70;99.90
1383;DHT22;685;47.196;11.880;2023-04-03T08:26:12;5.70;99.90
1383;DHT22;685;47.196;11.880;2023-04-03T08:28:40;5.60;99.90
1383;DHT22;685;47.196;11.880;2023-04-03T08:31:09;5.60;99.90
1383;DHT22;685;47.196;11.880;2023-04-03T08:33:37;5.60;99.90
1383;DHT22;685;47.196;11.880;2023-04-03T08:36:06;5.70;99.90
1383;DHT22;685;47.196;11.880;2023-04-03T08:38:33;5.60;99.90
1383;DHT22;685;47.196;11.880;2023-04-03T08:41:13;5.80;99.90
1383;DHT22;685;47.196;11.880;2023-04-03T08:43:55;5.60;99.90
1383;DHT22;685;47.196;11.880;2023-04-03T08:46:42;5.40;99.90
1383;DHT22;685;47.196;11.880;2023-04-03T08:49:16;5.70;99.90
1383;DHT22;685;47.196;11.880;2023-04-03T08:51:47;5.60;99.90
1383;DHT22;685;47.196;11.880;2023-04-03T08:54:26;5.20;99.90
1383;DHT22;685;47.196;11.880;2023-04-03T08:56:55;5.30;99.90
1383;DHT22;685;47.196;11.880;2023-04-03T08:59:27;5.60;99.90
1383;DHT22;685;47.196;11.880;2023-04-03T09:01:58;5.60;99.90
1383;DHT22;685;47.196;11.880;2023-04-03T09:04:27;5.50;99.90
1383;DHT22;685;47.196;11.880;2023-04-03T09:06:58;5.80;99.90
1383;DHT22;685;47.196;11.880;2023-04-03T09:09:32;5.60;99.90
1383;DHT22;685;47.196;11.880;2023-04-03T09:12:06;5.40;99.90
1383;DHT22;685;47.196;11.880;2023-04-03T09:14:39;5.30;99.90
1383;DHT22;685;47.196;11.880;2023-04-03T09:17:14;5.40;99.90
1383;DHT22;685;47.196;11.880;2023-04-03T09:19:49;5.40;99.90
1383;DHT22;685;47.196;11.880;2023-04-03T09:22:19;5.40;99.90
1383;DHT22;685;47.196;11.880;2023-04-03T09:24:50;5.20;99.90
1383;DHT22;685;47.196;11.880;2023-04-03T09:27:20;5.40;99.90
1383;DHT22;685;47.196;11.880;2023-04-03T09:29:47;5.40;99.90
1383;DHT22;685;47.196;11.880;2023-04-03T09:32:22;5.30;99.90
1383;DHT22;685;47.196;11.880;2023-04-03T09:34:52;5.30;99.90
1383;DHT22;685;47.196;11.880;2023-04-03T09:37:41;5.30;99.90
1383;DHT22;685;47.196;11.880;2023-04-03T09:40:28;5.50;99.90
1383;DHT22;685;47.196;11.880;2023-04-03T09:42:59;5.60;99.90
1383;DHT22;685;47.196;11.880;2023-04-03T09:45:28;5.70;99.90
1383;DHT22;685;47.196;11.880;2023-04-03T09:48:05;5.70;99.90
1383;DHT22;685;47.196;11.880;2023-04-03T09:50:33;5.60;99.90
1383;DHT22;685;47.196;11.880;2023-04-03T09:53:05;5.60;99.90
1383;DHT22;685;47.196;11.880;2023-04-03T09:55:42;5.70;99.90
1383;DHT22;685;47.196;11.880;2023-04-03T09:58:27;5.70;99.90
1383;DHT22;685;47.196;11.880;2023-04-03T10:00:56;5.60;99.90
1383;DHT22;685;47.196;11.880;2023-04-03T10:03:27;5.60;99.90
1383;DHT22;685;47.196;11.880;2023-04-03T10:05:54;5.90;99.90
1383;DHT22;685;47.196;11.880;2023-04-03T10:08:25;5.80;99.90
1383;DHT22;685;47.196;11.880;2023-04-03T10:11:13;5.80;99.90
1383;DHT22;685;47.196;11.880;2023-04-03T10:13:53;5.90;99.90
1383;DHT22;685;47.196;11.880;2023-04-03T10:16:33;5.80;99.90
1383;DHT22;685;47.196;11.880;2023-04-03T10:19:23;6.00;99.90
1383;DHT22;685;47.196;11.880;2023-04-03T10:21:59;6.00;99.90
1383;DHT22;685;47.196;11.880;2023-04-03T10:24:36;6.00;99.90
1383;DHT22;685;47.196;11.880;2023-04-03T10:27:10;6.10;99.90
1383;DHT22;685;47.196;11.880;2023-04-03T10:29:44;5.90;99.90
1383;DHT22;685;47.196;11.880;2023-04-03T10:32:28;5.80;99.90
1383;DHT22;685;47.196;11.880;2023-04-03T10:35:05;5.90;99.90
1383;DHT22;685;47.196;11.880;2023-04-03T10:37:41;6.00;99.90
1383;DHT22;685;47.196;11.880;2023-04-03T10:40:23;5.90;99.90
1383;DHT22;685;47.196;11.880;2023-04-03T10:42:55;5.80;99.90
1383;DHT22;685;47.196;11.880;2023-04-03T10:45:29;5.70;99.90
1383;DHT22;685;47.196;11.880;2023-04-03T10:48:06;5.80;99.90
1383;DHT22;685;47.196;11.880;2023-04-03T10:50:42;5.90;99.90
1383;DHT22;685;47.196;11.880;2023-04-03T10:53:17;5.90;99.90
1383;DHT22;685;47.196;11.880;2023-04-03T10:55:50;5.70;99.90
1383;DHT22;685;47.196;11.880;2023-04-03T10:58:24;5.70;99.90
1383;DHT22;685;47.196;11.880;2023-04-03T11:00:55;5.80;99.90
1383;DHT22;685;47.196;11.880;2023-04-03T11:03:29;5.80;99.90
1383;DHT22;685;47.196;11.880;2023-04-03T11:05:59;5.80;99.90
1383;DHT22;685;47.196;11.880;2023-04-03T11:08:29;5.90;99.90
1383;DHT22;685;47.196;11.880;2023-04-03T11:11:01;5.80;99.90
1383;DHT22;685;47.196;11.880;2023-04-03T11:13:34;5.80;99.90
1383;DHT22;685;47.196;11.880;2023-04-03T11:16:05;5.90;99.90
1383;DHT22;685;47.196;11.880;2023-04-03T11:18:36;6.20;99.90
1383;DHT22;685;47.196;11.880;2023-04-03T11:21:11;5.90;99.90
1383;DHT22;685;47.196;11.880;2023-04-03T11:23:40;5.80;99.90
1383;DHT22;685;47.196;11.880;2023-04-03T11:26:10;5.80;99.90
1383;DHT22;685;47.196;11.880;2023-04-03T11:28:37;5.80;99.90
1383;DHT22;685;47.196;11.880;2023-04-03T11:31:15;5.80;99.90
1383;DHT22;685;47.196;11.880;2023-04-03T11:33:50;5.80;99.90
1383;DHT22;685;47.196;11.880;2023-04-03T11:36:22;5.70;99.90
1383;DHT22;685;47.196;11.880;2023-04-03T11:38:52;5.70;99.90
1383;DHT22;685;47.196;11.880;2023-04-03T11:41:25;5.80;99.90
1383;DHT22;685;47.196;11.880;2023-04-03T11:43:58;5.70;99.90
1383;DHT22;685;47.196;11.880;2023-04-03T11:46:51;5.70;99.90
1383;DHT22;685;47.196;11.880;2023-04-03T11:49:50;5.70;99.90
1383;DHT22;685;47.196;11.880;2023-04-03T11:58:25;5.90;99.90
1383;DHT22;685;47.196;11.880;2023-04-03T12:01:04;6.20;99.90
1383;DHT22;685;47.196;11.880;2023-04-03T12:03:58;6.40;99.90
1383;DHT22;685;47.196;11.880;2023-04-03T12:07:00;6.30;99.90
1383;DHT22;685;47.196;11.880;2023-04-03T12:12:37;6.30;99.90
1383;DHT22;685;47.196;11.880;2023-04-03T12:15:24;6.30;99.90
1383;DHT22;685;47.196;11.880;2023-04-03T12:17:52;6.30;99.90
1383;DHT22;685;47.196;11.880;2023-04-03T12:20:53;6.50;99.90
1383;DHT22;685;47.196;11.880;2023-04-03T12:23:26;6.30;99.90
1383;DHT22;685;47.196;11.880;2023-04-03T12:26:00;6.40;99.90
1383;DHT22;685;47.196;11.880;2023-04-03T12:28:28;6.30;99.90
1383;DHT22;685;47.196;11.880;2023-04-03T12:30:56;6.30;99.90
1383;DHT22;685;47.196;11.880;2023-04-03T12:33:32;6.50;99.90
1383;DHT22;685;47.196;11.880;2023-04-03T12:36:09;6.60;99.90
1383;DHT22;685;47.196;11.880;2023-04-03T12:39:06;6.60;99.90
1383;DHT22;685;47.196;11.880;2023-04-03T12:41:42;6.70;99.90
1383;DHT22;685;47.196;11.880;2023-04-03T12:44:37;6.70;99.90
1383;DHT22;685;47.196;11.880;2023-04-03T12:47:22;6.60;99.90
1383;DHT22;685;47.196;11.880;2023-04-03T12:49:50;6.70;99.90
1383;DHT22;685;47.196;11.880;2023-04-03T12:52:29;6.60;99.90
1383;DHT22;685;47.196;11.880;2023-04-03T12:54:57;6.50;99.90
1383;DHT22;685;47.196;11.880;2023-04-03T12:57:26;6.30;99.90
1383;DHT22;685;47.196;11.880;2023-04-03T12:59:54;6.20;99.90
1383;DHT22;685;47.196;11.880;2023-04-03T13:02:24;6.30;99.90
1383;DHT22;685;47.196;11.880;2023-04-03T13:04:53;6.20;99.90
1383;DHT22;685;47.196;11.880;2023-04-03T13:07:24;6.50;99.90
1383;DHT22;685;47.196;11.880;2023-04-03T13:09:58;6.70;99.90
1383;DHT22;685;47.196;11.880;2023-04-03T13:12:26;6.80;99.90
1383;DHT22;685;47.196;11.880;2023-04-03T13:14:55;6.60;99.90
1383;DHT22;685;47.196;11.880;2023-04-03T13:17:24;6.50;99.90
1383;DHT22;685;47.196;11.880;2023-04-03T13:19:53;6.20;99.90
1383;DHT22;685;47.196;11.880;2023-04-03T13:22:28;6.40;99.90
1383;DHT22;685;47.196;11.880;2023-04-03T13:24:59;6.30;99.90
1383;DHT22;685;47.196;11.880;2023-04-03T13:27:30;6.40;99.90
1383;DHT22;685;47.196;11.880;2023-04-03T13:30:00;6.50;99.90
1383;DHT22;685;47.196;11.880;2023-04-03T13:32:29;6.40;99.90
1383;DHT22;685;47.196;11.880;2023-04-03T13:34:56;6.30;99.90
1383;DHT22;685;47.196;11.880;2023-04-03T13:37:27;6.40;99.90
1383;DHT22;685;47.196;11.880;2023-04-03T13:40:03;6.10;99.90
1383;DHT22;685;47.196;11.880;2023-04-03T13:42:32;6.00;99.90
1383;DHT22;685;47.196;11.880;2023-04-03T13:45:11;6.20;99.90
1383;DHT22;685;47.196;11.880;2023-04-03T13:47:44;6.00;99.90
1383;DHT22;685;47.196;11.880;2023-04-03T13:50:17;5.90;99.90
1383;DHT22;685;47.196;11.880;2023-04-03T13:52:49;6.00;99.90
1383;DHT22;685;47.196;11.880;2023-04-03T13:55:19;5.90;99.90
1383;DHT22;685;47.196;11.880;2023-04-03T13:57:56;5.70;99.90
1383;DHT22;685;47.196;11.880;2023-04-03T14:00:29;5.80;99.90
1383;DHT22;685;47.196;11.880;2023-04-03T14:02:57;5.80;99.90
1383;DHT22;685;47.196;11.880;2023-04-03T14:05:25;5.80;99.90
1383;DHT22;685;47.196;11.880;2023-04-03T14:07:54;5.80;99.90
1383;DHT22;685;47.196;11.880;2023-04-03T14:10:22;5.80;99.90
1383;DHT22;685;47.196;11.880;2023-04-03T14:12:49;5.90;99.90
1383;DHT22;685;47.196;11.880;2023-04-03T14:15:19;5.90;99.90
1383;DHT22;685;47.196;11.880;2023-04-03T14:17:47;6.10;99.90
1383;DHT22;685;47.196;11.880;2023-04-03T14:20:16;5.80;99.90
1383;DHT22;685;47.196;11.880;2023-04-03T14:22:43;5.80;99.90
1383;DHT22;685;47.196;11.880;2023-04-03T14:25:11;5.80;99.90
1383;DHT22;685;47.196;11.880;2023-04-03T14:27:40;5.80;99.90
1383;DHT22;685;47.196;11.880;2023-04-03T14:30:12;5.80;99.90
1383;DHT22;685;47.196;11.880;2023-04-03T14:32:40;5.80;99.90
1383;DHT22;685;47.196;11.880;2023-04-03T14:35:07;5.80;99.90
1383;DHT22;685;47.196;11.880;2023-04-03T14:37:34;5.70;99.90
1383;DHT22;685;47.196;11.880;2023-04-03T14:40:02;5.80;99.90
1383;DHT22;685;47.196;11.880;2023-04-03T14:42:33;5.70;99.90
1383;DHT22;685;47.196;11.880;2023-04-03T14:45:02;5.80;99.90
1383;DHT22;685;47.196;11.880;2023-04-03T14:47:30;5.90;99.90
1383;DHT22;685;47.196;11.880;2023-04-03T14:49:58;5.90;99.90
1383;DHT22;685;47.196;11.880;2023-04-03T14:52:27;6.00;99.90
1383;DHT22;685;47.196;11.880;2023-04-03T14:54:55;6.10;99.90
1383;DHT22;685;47.196;11.880;2023-04-03T14:57:24;5.80;99.90
1383;DHT22;685;47.196;11.880;2023-04-03T14:59:53;5.70;99.90
1383;DHT22;685;47.196;11.880;2023-04-03T15:02:26;5.80;99.90
1383;DHT22;685;47.196;11.880;2023-04-03T15:04:54;5.80;99.90
1383;DHT22;685;47.196;11.880;2023-04-03T15:07:22;5.80;99.90
1383;DHT22;685;47.196;11.880;2023-04-03T15:09:49;5.70;99.90
1383;DHT22;685;47.196;11.880;2023-04-03T15:12:16;5.80;99.90
1383;DHT22;685;47.196;11.880;2023-04-03T15:14:43;5.90;99.90
1383;DHT22;685;47.196;11.880;2023-04-03T15:17:14;5.80;99.90
1383;DHT22;685;47.196;11.880;2023-04-03T15:19:42;5.90;99.90
1383;DHT22;685;47.196;11.880;2023-04-03T15:22:14;5.70;99.90
1383;DHT22;685;47.196;11.880;2023-04-03T15:24:41;5.70;99.90
1383;DHT22;685;47.196;11.880;2023-04-03T15:27:08;5.70;99.90
1383;DHT22;685;47.196;11.880;2023-04-03T15:29:36;5.70;99.90
1383;DHT22;685;47.196;11.880;2023-04-03T15:32:03;5.70;99.90
1383;DHT22;685;47.196;11.880;2023-04-03T15:34:31;5.80;99.90
1383;DHT22;685;47.196;11.880;2023-04-03T15:36:58;5.70;99.90
1383;DHT22;685;47.196;11.880;2023-04-03T15:39:26;5.60;99.90
1383;DHT22;685;47.196;11.880;2023-04-03T15:41:53;5.60;99.90
1383;DHT22;685;47.196;11.880;2023-04-03T15:44:21;5.70;99.90
1383;DHT22;685;47.196;11.880;2023-04-03T15:46:48;5.60;99.90
1383;DHT22;685;47.196;11.880;2023-04-03T15:49:17;5.50;99.90
1383;DHT22;685;47.196;11.880;2023-04-03T15:51:45;5.60;99.90
1383;DHT22;685;47.196;11.880;2023-04-03T15:54:12;5.60;99.90
1383;DHT22;685;47.196;11.880;2023-04-03T15:56:39;5.60;99.90
1383;DHT22;685;47.196;11.880;2023-04-03T15:59:06;5.60;99.90
1383;DHT22;685;47.196;11.880;2023-04-03T16:01:33;5.80;99.90
1383;DHT22;685;47.196;11.880;2023-04-03T16:04:00;5.60;99.90
1383;DHT22;685;47.196;11.880;2023-04-03T16:06:27;5.60;99.90
1383;DHT22;685;47.196;11.880;2023-04-03T16:08:57;5.60;99.90
1383;DHT22;685;47.196;11.880;2023-04-03T16:11:24;5.60;99.90
1383;DHT22;685;47.196;11.880;2023-04-03T16:13:52;5.50;99.90
1383;DHT22;685;47.196;11.880;2023-04-03T16:16:19;5.40;99.90
1383;DHT22;685;47.196;11.880;2023-04-03T16:18:46;5.30;99.90
1383;DHT22;685;47.196;11.880;2023-04-03T16:21:14;5.30;99.90
1383;DHT22;685;47.196;11.880;2023-04-03T16:23:42;5.40;99.90
1383;DHT22;685;47.196;11.880;2023-04-03T16:26:11;5.30;99.90
1383;DHT22;685;47.196;11.880;2023-04-03T16:28:38;5.20;99.90
1383;DHT22;685;47.196;11.880;2023-04-03T16:31:06;5.10;99.90
1383;DHT22;685;47.196;11.880;2023-04-03T16:33:34;5.10;99.90
1383;DHT22;685;47.196;11.880;2023-04-03T16:36:03;5.10;99.90
1383;DHT22;685;47.196;11.880;2023-04-03T16:38:30;5.20;99.90
1383;DHT22;685;47.196;11.880;2023-04-03T16:40:57;5.10;99.90
1383;DHT22;685;47.196;11.880;2023-04-03T16:43:26;5.10;99.90